sensor_id;sensor_type;location;lat;lon;timestamp;pressure;altitude;pressure_sealevel;temperature
41593;BMP180;28026;48.562;14.440;2023-06-19T00:01:28;93706.00;;;25.20
41593;BMP180;28026;48.562;14.440;2023-06-19T00:03:59;93708.00;;;25.20
41593;BMP180;28026;48.562;14.440;2023-06-19T00:06:29;93712.00;;;25.20
41593;BMP180;28026;48.562;14.440;2023-06-19T00:09:00;93704.00;;;25.20
41593;BMP180;28026;48.562;14.440;2023-06-19T00:11:31;93703.00;;;25.20
41593;BMP180;28026;48.562;14.440;2023-06-19T00:14:02;93705.00;;;25.20
41593;BMP180;28026;48.562;14.440;2023-06-19T00:16:33;93705.00;;;25.10
41593;BMP180;28026;48.562;14.440;2023-06-19T00:19:03;93701.00;;;25.10
41593;BMP180;28026;48.562;14.440;2023-06-19T00:21:34;93700.00;;;25.00
41593;BMP180;28026;48.562;14.440;2023-06-19T00:24:05;93688.00;;;25.00
41593;BMP180;28026;48.562;14.440;2023-06-19T00:26:36;93691.00;;;25.00
41593;BMP180;28026;48.562;14.440;2023-06-19T00:29:07;93691.00;;;24.90
41593;BMP180;28026;48.562;14.440;2023-06-19T00:31:38;93689.00;;;24.90
41593;BMP180;28026;48.562;14.440;2023-06-19T00:34:09;93675.00;;;24.80
41593;BMP180;28026;48.562;14.440;2023-06-19T00:36:39;93693.00;;;24.80
41593;BMP180;28026;48.562;14.440;2023-06-19T00:39:10;93694.00;;;24.70
41593;BMP180;28026;48.562;14.440;2023-06-19T00:41:42;93692.00;;;24.60
41593;BMP180;28026;48.562;14.440;2023-06-19T00:44:15;93691.00;;;24.60
41593;BMP180;28026;48.562;14.440;2023-06-19T00:46:46;93693.00;;;24.60
41593;BMP180;28026;48.562;14.440;2023-06-19T00:49:17;93689.00;;;24.60
41593;BMP180;28026;48.562;14.440;2023-06-19T00:51:48;93692.00;;;24.50
41593;BMP180;28026;48.562;14.440;2023-06-19T00:54:19;93693.00;;;24.50
41593;BMP180;28026;48.562;14.440;2023-06-19T00:56:51;93685.00;;;24.50
41593;BMP180;28026;48.562;14.440;2023-06-19T00:59:22;93693.00;;;24.40
41593;BMP180;28026;48.562;14.440;2023-06-19T01:01:53;93687.00;;;24.40
41593;BMP180;28026;48.562;14.440;2023-06-19T01:04:24;93694.00;;;24.30
41593;BMP180;28026;48.562;14.440;2023-06-19T01:07:13;93686.00;;;24.30
41593;BMP180;28026;48.562;14.440;2023-06-19T01:09:53;93689.00;;;24.30
41593;BMP180;28026;48.562;14.440;2023-06-19T01:12:36;93679.00;;;24.30
41593;BMP180;28026;48.562;14.440;2023-06-19T01:15:11;93684.00;;;24.30
41593;BMP180;28026;48.562;14.440;2023-06-19T01:17:43;93678.00;;;24.30
41593;BMP180;28026;48.562;14.440;2023-06-19T01:20:17;93683.00;;;24.20
41593;BMP180;28026;48.562;14.440;2023-06-19T01:22:48;93691.00;;;24.20
41593;BMP180;28026;48.562;14.440;2023-06-19T01:25:19;93682.00;;;24.20
41593;BMP180;28026;48.562;14.440;2023-06-19T01:27:50;93691.00;;;24.20
41593;BMP180;28026;48.562;14.440;2023-06-19T01:30:21;93692.00;;;24.20
41593;BMP180;28026;48.562;14.440;2023-06-19T01:35:45;93679.00;;;24.10
41593;BMP180;28026;48.562;14.440;2023-06-19T01:38:19;93678.00;;;24.10
41593;BMP180;28026;48.562;14.440;2023-06-19T01:40:54;93681.00;;;24.10
41593;BMP180;28026;48.562;14.440;2023-06-19T01:43:28;93677.00;;;24.00
41593;BMP180;28026;48.562;14.440;2023-06-19T01:46:01;93671.00;;;24.00
41593;BMP180;28026;48.562;14.440;2023-06-19T01:48:35;93673.00;;;24.00
41593;BMP180;28026;48.562;14.440;2023-06-19T01:51:06;93678.00;;;23.90
41593;BMP180;28026;48.562;14.440;2023-06-19T01:53:37;93681.00;;;23.80
41593;BMP180;28026;48.562;14.440;2023-06-19T01:56:08;93683.00;;;23.70
41593;BMP180;28026;48.562;14.440;2023-06-19T01:58:39;93686.00;;;23.60
41593;BMP180;28026;48.562;14.440;2023-06-19T02:01:09;93686.00;;;23.50
41593;BMP180;28026;48.562;14.440;2023-06-19T02:03:40;93686.00;;;23.50
41593;BMP180;28026;48.562;14.440;2023-06-19T02:06:11;93687.00;;;23.50
41593;BMP180;28026;48.562;14.440;2023-06-19T02:08:42;93687.00;;;23.50
41593;BMP180;28026;48.562;14.440;2023-06-19T02:11:13;93685.00;;;23.40
41593;BMP180;28026;48.562;14.440;2023-06-19T02:13:43;93678.00;;;23.40
41593;BMP180;28026;48.562;14.440;2023-06-19T02:16:14;93685.00;;;23.40
41593;BMP180;28026;48.562;14.440;2023-06-19T02:18:45;93679.00;;;23.40
41593;BMP180;28026;48.562;14.440;2023-06-19T02:21:16;93676.00;;;23.40
41593;BMP180;28026;48.562;14.440;2023-06-19T02:23:47;93681.00;;;23.40
41593;BMP180;28026;48.562;14.440;2023-06-19T02:26:18;93679.00;;;23.40
41593;BMP180;28026;48.562;14.440;2023-06-19T02:28:48;93676.00;;;23.40
41593;BMP180;28026;48.562;14.440;2023-06-19T02:31:20;93668.00;;;23.30
41593;BMP180;28026;48.562;14.440;2023-06-19T02:33:52;93672.00;;;23.20
41593;BMP180;28026;48.562;14.440;2023-06-19T02:36:23;93674.00;;;23.20
41593;BMP180;28026;48.562;14.440;2023-06-19T02:38:53;93676.00;;;23.20
41593;BMP180;28026;48.562;14.440;2023-06-19T02:41:24;93667.00;;;23.20
41593;BMP180;28026;48.562;14.440;2023-06-19T02:43:55;93672.00;;;23.20
41593;BMP180;28026;48.562;14.440;2023-06-19T02:46:26;93668.00;;;23.20
41593;BMP180;28026;48.562;14.440;2023-06-19T02:48:56;93681.00;;;23.10
41593;BMP180;28026;48.562;14.440;2023-06-19T02:51:27;93674.00;;;23.10
41593;BMP180;28026;48.562;14.440;2023-06-19T02:53:58;93670.00;;;23.00
41593;BMP180;28026;48.562;14.440;2023-06-19T02:56:29;93670.00;;;23.00
41593;BMP180;28026;48.562;14.440;2023-06-19T02:58:59;93674.00;;;23.00
41593;BMP180;28026;48.562;14.440;2023-06-19T03:01:30;93674.00;;;22.90
41593;BMP180;28026;48.562;14.440;2023-06-19T03:04:01;93677.00;;;22.90
41593;BMP180;28026;48.562;14.440;2023-06-19T03:06:32;93684.00;;;22.90
41593;BMP180;28026;48.562;14.440;2023-06-19T03:09:09;93685.00;;;22.90
41593;BMP180;28026;48.562;14.440;2023-06-19T03:11:42;93689.00;;;22.90
41593;BMP180;28026;48.562;14.440;2023-06-19T03:14:13;93687.00;;;23.00
41593;BMP180;28026;48.562;14.440;2023-06-19T03:16:44;93678.00;;;23.00
41593;BMP180;28026;48.562;14.440;2023-06-19T03:19:15;93683.00;;;23.00
41593;BMP180;28026;48.562;14.440;2023-06-19T03:21:45;93682.00;;;23.00
41593;BMP180;28026;48.562;14.440;2023-06-19T03:24:16;93681.00;;;23.00
41593;BMP180;28026;48.562;14.440;2023-06-19T03:26:47;93690.00;;;23.00
41593;BMP180;28026;48.562;14.440;2023-06-19T03:29:18;93690.00;;;22.90
41593;BMP180;28026;48.562;14.440;2023-06-19T03:31:48;93696.00;;;22.90
41593;BMP180;28026;48.562;14.440;2023-06-19T03:34:20;93692.00;;;22.90
41593;BMP180;28026;48.562;14.440;2023-06-19T03:36:51;93689.00;;;22.90
41593;BMP180;28026;48.562;14.440;2023-06-19T03:39:22;93697.00;;;22.90
41593;BMP180;28026;48.562;14.440;2023-06-19T03:41:53;93696.00;;;22.90
41593;BMP180;28026;48.562;14.440;2023-06-19T03:44:23;93694.00;;;22.90
41593;BMP180;28026;48.562;14.440;2023-06-19T03:46:54;93698.00;;;22.90
41593;BMP180;28026;48.562;14.440;2023-06-19T03:49:25;93696.00;;;22.90
41593;BMP180;28026;48.562;14.440;2023-06-19T03:51:56;93702.00;;;22.90
41593;BMP180;28026;48.562;14.440;2023-06-19T03:54:26;93695.00;;;23.00
41593;BMP180;28026;48.562;14.440;2023-06-19T03:56:57;93695.00;;;23.00
41593;BMP180;28026;48.562;14.440;2023-06-19T03:59:28;93690.00;;;23.00
41593;BMP180;28026;48.562;14.440;2023-06-19T04:01:59;93688.00;;;23.00
41593;BMP180;28026;48.562;14.440;2023-06-19T04:04:29;93695.00;;;23.10
41593;BMP180;28026;48.562;14.440;2023-06-19T04:07:00;93701.00;;;23.10
41593;BMP180;28026;48.562;14.440;2023-06-19T04:09:31;93695.00;;;23.10
41593;BMP180;28026;48.562;14.440;2023-06-19T04:12:02;93697.00;;;23.10
41593;BMP180;28026;48.562;14.440;2023-06-19T04:14:33;93699.00;;;23.10
41593;BMP180;28026;48.562;14.440;2023-06-19T04:17:04;93703.00;;;23.10
41593;BMP180;28026;48.562;14.440;2023-06-19T04:19:35;93701.00;;;23.20
41593;BMP180;28026;48.562;14.440;2023-06-19T04:22:05;93705.00;;;23.20
41593;BMP180;28026;48.562;14.440;2023-06-19T04:24:36;93698.00;;;23.30
41593;BMP180;28026;48.562;14.440;2023-06-19T04:27:07;93698.00;;;23.40
41593;BMP180;28026;48.562;14.440;2023-06-19T04:29:40;93697.00;;;23.50
41593;BMP180;28026;48.562;14.440;2023-06-19T04:32:11;93694.00;;;23.60
41593;BMP180;28026;48.562;14.440;2023-06-19T04:34:42;93694.00;;;23.60
41593;BMP180;28026;48.562;14.440;2023-06-19T04:37:16;93692.00;;;23.70
41593;BMP180;28026;48.562;14.440;2023-06-19T04:39:49;93700.00;;;23.80
41593;BMP180;28026;48.562;14.440;2023-06-19T04:42:20;93704.00;;;23.90
41593;BMP180;28026;48.562;14.440;2023-06-19T04:44:51;93704.00;;;24.00
41593;BMP180;28026;48.562;14.440;2023-06-19T04:47:23;93714.00;;;24.00
41593;BMP180;28026;48.562;14.440;2023-06-19T04:49:54;93715.00;;;24.10
41593;BMP180;28026;48.562;14.440;2023-06-19T04:52:25;93710.00;;;24.30
41593;BMP180;28026;48.562;14.440;2023-06-19T04:54:56;93718.00;;;24.40
41593;BMP180;28026;48.562;14.440;2023-06-19T04:57:27;93718.00;;;24.50
41593;BMP180;28026;48.562;14.440;2023-06-19T04:59:58;93722.00;;;24.60
41593;BMP180;28026;48.562;14.440;2023-06-19T05:02:28;93718.00;;;24.70
41593;BMP180;28026;48.562;14.440;2023-06-19T05:04:59;93714.00;;;24.80
41593;BMP180;28026;48.562;14.440;2023-06-19T05:07:33;93721.00;;;24.80
41593;BMP180;28026;48.562;14.440;2023-06-19T05:10:04;93725.00;;;24.80
41593;BMP180;28026;48.562;14.440;2023-06-19T05:12:36;93727.00;;;24.80
41593;BMP180;28026;48.562;14.440;2023-06-19T05:15:07;93721.00;;;24.80
41593;BMP180;28026;48.562;14.440;2023-06-19T05:17:38;93726.00;;;24.90
41593;BMP180;28026;48.562;14.440;2023-06-19T05:20:09;93728.00;;;25.00
41593;BMP180;28026;48.562;14.440;2023-06-19T05:22:42;93732.00;;;25.20
41593;BMP180;28026;48.562;14.440;2023-06-19T05:25:12;93732.00;;;25.60
41593;BMP180;28026;48.562;14.440;2023-06-19T05:27:43;93737.00;;;25.90
41593;BMP180;28026;48.562;14.440;2023-06-19T05:30:14;93741.00;;;26.00
41593;BMP180;28026;48.562;14.440;2023-06-19T05:32:45;93738.00;;;26.10
41593;BMP180;28026;48.562;14.440;2023-06-19T05:35:16;93739.00;;;26.20
41593;BMP180;28026;48.562;14.440;2023-06-19T05:37:47;93743.00;;;26.20
41593;BMP180;28026;48.562;14.440;2023-06-19T05:40:18;93747.00;;;26.30
41593;BMP180;28026;48.562;14.440;2023-06-19T05:42:49;93749.00;;;26.40
41593;BMP180;28026;48.562;14.440;2023-06-19T05:45:19;93743.00;;;26.50
41593;BMP180;28026;48.562;14.440;2023-06-19T05:47:50;93749.00;;;26.70
41593;BMP180;28026;48.562;14.440;2023-06-19T05:50:21;93737.00;;;26.80
41593;BMP180;28026;48.562;14.440;2023-06-19T05:52:52;93749.00;;;27.10
41593;BMP180;28026;48.562;14.440;2023-06-19T05:55:22;93750.00;;;27.30
41593;BMP180;28026;48.562;14.440;2023-06-19T05:57:55;93761.00;;;27.50
41593;BMP180;28026;48.562;14.440;2023-06-19T06:00:26;93762.00;;;27.60
41593;BMP180;28026;48.562;14.440;2023-06-19T06:02:58;93760.00;;;27.70
41593;BMP180;28026;48.562;14.440;2023-06-19T06:05:32;93755.00;;;27.90
41593;BMP180;28026;48.562;14.440;2023-06-19T06:08:03;93759.00;;;28.10
41593;BMP180;28026;48.562;14.440;2023-06-19T06:10:34;93760.00;;;28.40
41593;BMP180;28026;48.562;14.440;2023-06-19T06:13:05;93768.00;;;28.70
41593;BMP180;28026;48.562;14.440;2023-06-19T06:15:35;93768.00;;;29.00
41593;BMP180;28026;48.562;14.440;2023-06-19T06:18:06;93763.00;;;29.20
41593;BMP180;28026;48.562;14.440;2023-06-19T06:20:37;93768.00;;;29.40
41593;BMP180;28026;48.562;14.440;2023-06-19T06:23:08;93778.00;;;29.60
41593;BMP180;28026;48.562;14.440;2023-06-19T06:25:38;93779.00;;;29.90
41593;BMP180;28026;48.562;14.440;2023-06-19T06:28:09;93774.00;;;29.80
41593;BMP180;28026;48.562;14.440;2023-06-19T06:30:42;93784.00;;;29.60
41593;BMP180;28026;48.562;14.440;2023-06-19T06:33:13;93793.00;;;29.50
41593;BMP180;28026;48.562;14.440;2023-06-19T06:35:43;93802.00;;;29.50
41593;BMP180;28026;48.562;14.440;2023-06-19T06:38:14;93799.00;;;29.40
41593;BMP180;28026;48.562;14.440;2023-06-19T06:40:45;93801.00;;;29.40
41593;BMP180;28026;48.562;14.440;2023-06-19T06:43:16;93799.00;;;29.50
41593;BMP180;28026;48.562;14.440;2023-06-19T06:45:47;93802.00;;;29.80
41593;BMP180;28026;48.562;14.440;2023-06-19T06:48:18;93807.00;;;30.10
41593;BMP180;28026;48.562;14.440;2023-06-19T06:50:49;93809.00;;;30.30
41593;BMP180;28026;48.562;14.440;2023-06-19T06:53:19;93812.00;;;30.40
41593;BMP180;28026;48.562;14.440;2023-06-19T06:55:50;93820.00;;;30.40
41593;BMP180;28026;48.562;14.440;2023-06-19T06:58:21;93815.00;;;30.60
41593;BMP180;28026;48.562;14.440;2023-06-19T07:00:52;93809.00;;;30.80
41593;BMP180;28026;48.562;14.440;2023-06-19T07:03:23;93816.00;;;31.10
41593;BMP180;28026;48.562;14.440;2023-06-19T07:05:54;93817.00;;;31.30
41593;BMP180;28026;48.562;14.440;2023-06-19T07:08:25;93820.00;;;31.40
41593;BMP180;28026;48.562;14.440;2023-06-19T07:10:56;93816.00;;;31.50
41593;BMP180;28026;48.562;14.440;2023-06-19T07:13:26;93818.00;;;31.70
41593;BMP180;28026;48.562;14.440;2023-06-19T07:15:57;93812.00;;;31.90
41593;BMP180;28026;48.562;14.440;2023-06-19T07:18:29;93807.00;;;32.20
41593;BMP180;28026;48.562;14.440;2023-06-19T07:21:01;93813.00;;;32.40
41593;BMP180;28026;48.562;14.440;2023-06-19T07:23:44;93803.00;;;32.20
41593;BMP180;28026;48.562;14.440;2023-06-19T07:26:17;93810.00;;;32.10
41593;BMP180;28026;48.562;14.440;2023-06-19T07:28:48;93811.00;;;32.00
41593;BMP180;28026;48.562;14.440;2023-06-19T07:31:19;93810.00;;;32.00
41593;BMP180;28026;48.562;14.440;2023-06-19T07:33:49;93812.00;;;31.90
41593;BMP180;28026;48.562;14.440;2023-06-19T07:36:20;93812.00;;;31.80
41593;BMP180;28026;48.562;14.440;2023-06-19T07:38:52;93818.00;;;31.80
41593;BMP180;28026;48.562;14.440;2023-06-19T07:41:23;93811.00;;;31.60
41593;BMP180;28026;48.562;14.440;2023-06-19T07:43:53;93813.00;;;31.50
41593;BMP180;28026;48.562;14.440;2023-06-19T07:46:24;93813.00;;;31.40
41593;BMP180;28026;48.562;14.440;2023-06-19T07:48:55;93812.00;;;31.30
41593;BMP180;28026;48.562;14.440;2023-06-19T07:51:25;93814.00;;;31.20
41593;BMP180;28026;48.562;14.440;2023-06-19T07:53:56;93823.00;;;31.10
41593;BMP180;28026;48.562;14.440;2023-06-19T07:56:27;93824.00;;;31.00
41593;BMP180;28026;48.562;14.440;2023-06-19T07:58:58;93831.00;;;31.00
41593;BMP180;28026;48.562;14.440;2023-06-19T08:01:29;93834.00;;;30.90
41593;BMP180;28026;48.562;14.440;2023-06-19T08:03:59;93834.00;;;30.90
41593;BMP180;28026;48.562;14.440;2023-06-19T08:06:30;93839.00;;;30.90
41593;BMP180;28026;48.562;14.440;2023-06-19T08:09:01;93845.00;;;30.90
41593;BMP180;28026;48.562;14.440;2023-06-19T08:11:33;93844.00;;;30.90
41593;BMP180;28026;48.562;14.440;2023-06-19T08:14:04;93849.00;;;30.90
41593;BMP180;28026;48.562;14.440;2023-06-19T08:16:34;93855.00;;;30.90
41593;BMP180;28026;48.562;14.440;2023-06-19T08:19:05;93854.00;;;30.90
41593;BMP180;28026;48.562;14.440;2023-06-19T08:21:36;93850.00;;;31.00
41593;BMP180;28026;48.562;14.440;2023-06-19T08:24:07;93854.00;;;31.00
41593;BMP180;28026;48.562;14.440;2023-06-19T08:26:37;93852.00;;;31.10
41593;BMP180;28026;48.562;14.440;2023-06-19T08:29:08;93852.00;;;31.10
41593;BMP180;28026;48.562;14.440;2023-06-19T08:31:39;93853.00;;;31.10
41593;BMP180;28026;48.562;14.440;2023-06-19T08:34:10;93854.00;;;31.20
41593;BMP180;28026;48.562;14.440;2023-06-19T08:36:40;93850.00;;;31.40
41593;BMP180;28026;48.562;14.440;2023-06-19T08:39:11;93850.00;;;31.50
41593;BMP180;28026;48.562;14.440;2023-06-19T08:41:42;93856.00;;;31.50
41593;BMP180;28026;48.562;14.440;2023-06-19T08:44:13;93853.00;;;31.50
41593;BMP180;28026;48.562;14.440;2023-06-19T08:46:44;93861.00;;;31.50
41593;BMP180;28026;48.562;14.440;2023-06-19T08:49:15;93857.00;;;31.40
41593;BMP180;28026;48.562;14.440;2023-06-19T08:51:46;93864.00;;;31.40
41593;BMP180;28026;48.562;14.440;2023-06-19T08:54:17;93853.00;;;31.40
41593;BMP180;28026;48.562;14.440;2023-06-19T08:56:48;93844.00;;;31.30
41593;BMP180;28026;48.562;14.440;2023-06-19T08:59:20;93840.00;;;31.10
41593;BMP180;28026;48.562;14.440;2023-06-19T09:01:52;93847.00;;;31.00
41593;BMP180;28026;48.562;14.440;2023-06-19T09:04:26;93855.00;;;30.90
41593;BMP180;28026;48.562;14.440;2023-06-19T09:07:00;93848.00;;;30.90
41593;BMP180;28026;48.562;14.440;2023-06-19T09:09:32;93862.00;;;30.90
41593;BMP180;28026;48.562;14.440;2023-06-19T09:12:05;93864.00;;;31.00
41593;BMP180;28026;48.562;14.440;2023-06-19T09:17:17;93867.00;;;31.20
41593;BMP180;28026;48.562;14.440;2023-06-19T09:19:51;93865.00;;;31.20
41593;BMP180;28026;48.562;14.440;2023-06-19T09:22:28;93868.00;;;31.20
41593;BMP180;28026;48.562;14.440;2023-06-19T09:25:01;93871.00;;;31.30
41593;BMP180;28026;48.562;14.440;2023-06-19T09:27:33;93858.00;;;31.30
41593;BMP180;28026;48.562;14.440;2023-06-19T09:30:05;93859.00;;;31.40
41593;BMP180;28026;48.562;14.440;2023-06-19T09:32:36;93862.00;;;31.40
41593;BMP180;28026;48.562;14.440;2023-06-19T09:35:07;93859.00;;;31.40
41593;BMP180;28026;48.562;14.440;2023-06-19T09:37:39;93858.00;;;31.40
41593;BMP180;28026;48.562;14.440;2023-06-19T09:40:10;93850.00;;;31.50
41593;BMP180;28026;48.562;14.440;2023-06-19T09:42:42;93858.00;;;31.60
41593;BMP180;28026;48.562;14.440;2023-06-19T09:45:15;93859.00;;;31.70
41593;BMP180;28026;48.562;14.440;2023-06-19T09:47:52;93853.00;;;31.90
41593;BMP180;28026;48.562;14.440;2023-06-19T09:50:26;93858.00;;;32.10
41593;BMP180;28026;48.562;14.440;2023-06-19T09:52:58;93854.00;;;32.60
41593;BMP180;28026;48.562;14.440;2023-06-19T09:55:29;93871.00;;;32.80
41593;BMP180;28026;48.562;14.440;2023-06-19T09:58:01;93860.00;;;33.00
41593;BMP180;28026;48.562;14.440;2023-06-19T10:00:36;93868.00;;;33.30
41593;BMP180;28026;48.562;14.440;2023-06-19T10:03:12;93870.00;;;33.20
41593;BMP180;28026;48.562;14.440;2023-06-19T10:05:43;93866.00;;;33.20
41593;BMP180;28026;48.562;14.440;2023-06-19T10:08:27;93862.00;;;33.60
41593;BMP180;28026;48.562;14.440;2023-06-19T10:10:59;93855.00;;;33.90
41593;BMP180;28026;48.562;14.440;2023-06-19T10:13:35;93862.00;;;34.20
41593;BMP180;28026;48.562;14.440;2023-06-19T10:16:31;93858.00;;;34.30
41593;BMP180;28026;48.562;14.440;2023-06-19T10:19:11;93849.00;;;34.50
41593;BMP180;28026;48.562;14.440;2023-06-19T10:21:52;93849.00;;;35.00
41593;BMP180;28026;48.562;14.440;2023-06-19T10:24:25;93853.00;;;35.10
41593;BMP180;28026;48.562;14.440;2023-06-19T10:26:59;93855.00;;;35.30
41593;BMP180;28026;48.562;14.440;2023-06-19T10:29:41;93852.00;;;35.20
41593;BMP180;28026;48.562;14.440;2023-06-19T10:32:12;93855.00;;;35.10
41593;BMP180;28026;48.562;14.440;2023-06-19T10:34:45;93857.00;;;35.00
41593;BMP180;28026;48.562;14.440;2023-06-19T10:37:32;93855.00;;;34.90
41593;BMP180;28026;48.562;14.440;2023-06-19T10:40:04;93857.00;;;35.10
41593;BMP180;28026;48.562;14.440;2023-06-19T10:42:40;93848.00;;;35.60
41593;BMP180;28026;48.562;14.440;2023-06-19T10:45:12;93850.00;;;35.70
41593;BMP180;28026;48.562;14.440;2023-06-19T10:47:44;93843.00;;;35.70
41593;BMP180;28026;48.562;14.440;2023-06-19T10:50:15;93839.00;;;35.80
41593;BMP180;28026;48.562;14.440;2023-06-19T10:52:46;93843.00;;;35.90
41593;BMP180;28026;48.562;14.440;2023-06-19T10:55:18;93839.00;;;35.80
41593;BMP180;28026;48.562;14.440;2023-06-19T10:57:49;93837.00;;;35.90
41593;BMP180;28026;48.562;14.440;2023-06-19T11:00:25;93839.00;;;35.90
41593;BMP180;28026;48.562;14.440;2023-06-19T11:02:58;93847.00;;;35.70
41593;BMP180;28026;48.562;14.440;2023-06-19T11:05:29;93846.00;;;35.60
41593;BMP180;28026;48.562;14.440;2023-06-19T11:08:00;93846.00;;;35.60
41593;BMP180;28026;48.562;14.440;2023-06-19T11:10:30;93838.00;;;35.70
41593;BMP180;28026;48.562;14.440;2023-06-19T11:13:02;93835.00;;;35.70
41593;BMP180;28026;48.562;14.440;2023-06-19T11:15:34;93840.00;;;35.50
41593;BMP180;28026;48.562;14.440;2023-06-19T11:18:05;93843.00;;;35.30
41593;BMP180;28026;48.562;14.440;2023-06-19T11:20:46;93839.00;;;35.10
41593;BMP180;28026;48.562;14.440;2023-06-19T11:23:26;93840.00;;;35.00
41593;BMP180;28026;48.562;14.440;2023-06-19T11:26:04;93840.00;;;35.10
41593;BMP180;28026;48.562;14.440;2023-06-19T11:28:36;93838.00;;;35.20
41593;BMP180;28026;48.562;14.440;2023-06-19T11:31:06;93834.00;;;35.40
41593;BMP180;28026;48.562;14.440;2023-06-19T11:33:37;93831.00;;;35.50
41593;BMP180;28026;48.562;14.440;2023-06-19T11:36:08;93832.00;;;35.70
41593;BMP180;28026;48.562;14.440;2023-06-19T11:38:39;93833.00;;;36.00
41593;BMP180;28026;48.562;14.440;2023-06-19T11:41:11;93827.00;;;36.30
41593;BMP180;28026;48.562;14.440;2023-06-19T11:43:42;93822.00;;;36.50
41593;BMP180;28026;48.562;14.440;2023-06-19T11:46:13;93823.00;;;36.40
41593;BMP180;28026;48.562;14.440;2023-06-19T11:48:44;93821.00;;;36.40
41593;BMP180;28026;48.562;14.440;2023-06-19T11:51:14;93821.00;;;36.40
41593;BMP180;28026;48.562;14.440;2023-06-19T11:53:45;93817.00;;;36.70
41593;BMP180;28026;48.562;14.440;2023-06-19T11:56:16;93818.00;;;36.70
41593;BMP180;28026;48.562;14.440;2023-06-19T11:58:47;93827.00;;;36.50
41593;BMP180;28026;48.562;14.440;2023-06-19T12:01:18;93812.00;;;36.50
41593;BMP180;28026;48.562;14.440;2023-06-19T12:03:49;93821.00;;;36.60
41593;BMP180;28026;48.562;14.440;2023-06-19T12:06:20;93820.00;;;36.40
41593;BMP180;28026;48.562;14.440;2023-06-19T12:08:51;93816.00;;;36.50
41593;BMP180;28026;48.562;14.440;2023-06-19T12:11:22;93810.00;;;36.70
41593;BMP180;28026;48.562;14.440;2023-06-19T12:13:53;93811.00;;;36.80
41593;BMP180;28026;48.562;14.440;2023-06-19T12:16:24;93812.00;;;37.10
41593;BMP180;28026;48.562;14.440;2023-06-19T12:18:55;93817.00;;;37.20
41593;BMP180;28026;48.562;14.440;2023-06-19T12:21:26;93813.00;;;37.20
41593;BMP180;28026;48.562;14.440;2023-06-19T12:23:57;93805.00;;;37.30
41593;BMP180;28026;48.562;14.440;2023-06-19T12:26:27;93815.00;;;37.40
41593;BMP180;28026;48.562;14.440;2023-06-19T12:28:58;93815.00;;;37.70
41593;BMP180;28026;48.562;14.440;2023-06-19T12:31:31;93817.00;;;37.80
41593;BMP180;28026;48.562;14.440;2023-06-19T12:34:03;93819.00;;;37.80
41593;BMP180;28026;48.562;14.440;2023-06-19T12:36:36;93816.00;;;37.90
41593;BMP180;28026;48.562;14.440;2023-06-19T12:39:07;93817.00;;;37.80
41593;BMP180;28026;48.562;14.440;2023-06-19T12:41:45;93813.00;;;38.00
41593;BMP180;28026;48.562;14.440;2023-06-19T12:44:15;93813.00;;;38.20
41593;BMP180;28026;48.562;14.440;2023-06-19T12:46:47;93810.00;;;37.90
41593;BMP180;28026;48.562;14.440;2023-06-19T12:49:17;93809.00;;;37.80
41593;BMP180;28026;48.562;14.440;2023-06-19T12:51:48;93813.00;;;37.90
41593;BMP180;28026;48.562;14.440;2023-06-19T12:54:22;93810.00;;;38.20
41593;BMP180;28026;48.562;14.440;2023-06-19T12:56:53;93812.00;;;38.30
41593;BMP180;28026;48.562;14.440;2023-06-19T12:59:24;93803.00;;;38.50
41593;BMP180;28026;48.562;14.440;2023-06-19T13:01:55;93807.00;;;38.60
41593;BMP180;28026;48.562;14.440;2023-06-19T13:04:26;93806.00;;;38.40
41593;BMP180;28026;48.562;14.440;2023-06-19T13:06:56;93806.00;;;38.20
41593;BMP180;28026;48.562;14.440;2023-06-19T13:09:27;93795.00;;;38.00
41593;BMP180;28026;48.562;14.440;2023-06-19T13:11:58;93796.00;;;37.90
41593;BMP180;28026;48.562;14.440;2023-06-19T13:14:29;93796.00;;;37.90
41593;BMP180;28026;48.562;14.440;2023-06-19T13:17:00;93802.00;;;38.00
41593;BMP180;28026;48.562;14.440;2023-06-19T13:19:30;93791.00;;;37.80
41593;BMP180;28026;48.562;14.440;2023-06-19T13:22:01;93798.00;;;37.50
41593;BMP180;28026;48.562;14.440;2023-06-19T13:24:32;93799.00;;;37.20
41593;BMP180;28026;48.562;14.440;2023-06-19T13:27:03;93786.00;;;37.00
41593;BMP180;28026;48.562;14.440;2023-06-19T13:29:34;93799.00;;;37.00
41593;BMP180;28026;48.562;14.440;2023-06-19T13:32:05;93785.00;;;36.90
41593;BMP180;28026;48.562;14.440;2023-06-19T13:34:36;93784.00;;;36.90
41593;BMP180;28026;48.562;14.440;2023-06-19T13:37:07;93784.00;;;37.00
41593;BMP180;28026;48.562;14.440;2023-06-19T13:39:38;93783.00;;;37.20
41593;BMP180;28026;48.562;14.440;2023-06-19T13:42:10;93783.00;;;37.50
41593;BMP180;28026;48.562;14.440;2023-06-19T13:44:41;93782.00;;;37.90
41593;BMP180;28026;48.562;14.440;2023-06-19T13:47:12;93779.00;;;38.50
41593;BMP180;28026;48.562;14.440;2023-06-19T13:49:43;93787.00;;;38.80
41593;BMP180;28026;48.562;14.440;2023-06-19T13:52:13;93786.00;;;38.80
41593;BMP180;28026;48.562;14.440;2023-06-19T13:54:44;93786.00;;;39.20
41593;BMP180;28026;48.562;14.440;2023-06-19T13:57:15;93791.00;;;39.10
41593;BMP180;28026;48.562;14.440;2023-06-19T13:59:46;93785.00;;;38.70
41593;BMP180;28026;48.562;14.440;2023-06-19T14:02:19;93786.00;;;38.50
41593;BMP180;28026;48.562;14.440;2023-06-19T14:04:50;93785.00;;;38.60
41593;BMP180;28026;48.562;14.440;2023-06-19T14:07:20;93789.00;;;38.60
41593;BMP180;28026;48.562;14.440;2023-06-19T14:09:53;93780.00;;;38.50
41593;BMP180;28026;48.562;14.440;2023-06-19T14:12:24;93786.00;;;38.40
41593;BMP180;28026;48.562;14.440;2023-06-19T14:14:55;93785.00;;;38.30
41593;BMP180;28026;48.562;14.440;2023-06-19T14:17:26;93777.00;;;38.60
41593;BMP180;28026;48.562;14.440;2023-06-19T14:19:57;93779.00;;;38.70
41593;BMP180;28026;48.562;14.440;2023-06-19T14:22:28;93779.00;;;38.70
41593;BMP180;28026;48.562;14.440;2023-06-19T14:24:59;93776.00;;;38.60
41593;BMP180;28026;48.562;14.440;2023-06-19T14:27:32;93782.00;;;38.50